createdAt,value
2023-03-25T00:00:25.559Z,99238.84
2023-03-25T00:02:53.698Z,99241.41
2023-03-25T00:05:22.268Z,99240.91
2023-03-25T00:07:52.630Z,99252.16
2023-03-25T00:10:22.191Z,99252.94
2023-03-25T00:12:48.944Z,99250.06
2023-03-25T00:15:16.590Z,99248.81
2023-03-25T00:17:44.299Z,99249.28
2023-03-25T00:20:12.708Z,99245.63
2023-03-25T00:22:44.652Z,99239.09
2023-03-25T00:25:17.749Z,99243.53
2023-03-25T00:27:46.682Z,99241.41
2023-03-25T00:30:15.858Z,99239.81
2023-03-25T00:32:45.975Z,99228.91
2023-03-25T00:35:14.077Z,99230.97
2023-03-25T00:37:41.299Z,99220.53
2023-03-25T00:40:09.094Z,99213.13
2023-03-25T00:42:35.954Z,99203.16
2023-03-25T00:45:02.851Z,99205.78
2023-03-25T00:47:31.459Z,99215.19
2023-03-25T00:49:58.472Z,99213.59
2023-03-25T00:52:26.688Z,99214.09
2023-03-25T00:54:54.001Z,99223.50
2023-03-25T00:57:22.319Z,99217.22
2023-03-25T00:59:50.353Z,99223.25
2023-03-25T01:02:19.098Z,99226.09
2023-03-25T01:04:46.755Z,99223.75
2023-03-25T01:07:16.555Z,99221.84
2023-03-25T01:09:46.555Z,99229.09
2023-03-25T01:12:15.671Z,99230.63
2023-03-25T01:14:42.978Z,99221.19
2023-03-25T01:17:10.331Z,99237.81
2023-03-25T01:19:37.143Z,99238.63
2023-03-25T01:22:04.142Z,99231.03
2023-03-25T01:24:31.544Z,99228.09
2023-03-25T01:26:58.601Z,99224.22
2023-03-25T01:29:28.233Z,99234.66
2023-03-25T01:31:55.710Z,99230.00
2023-03-25T01:34:23.007Z,99225.31
2023-03-25T01:36:49.975Z,99226.41
2023-03-25T01:39:19.120Z,99223.81
2023-03-25T01:41:50.487Z,99217.88
2023-03-25T01:44:24.230Z,99227.22
2023-03-25T01:46:53.868Z,99221.19
2023-03-25T01:49:33.262Z,99216.47
2023-03-25T01:52:13.998Z,99222.66
2023-03-25T01:54:41.863Z,99216.47
2023-03-25T01:57:10.459Z,99204.72
2023-03-25T01:59:38.152Z,99202.91
2023-03-25T02:02:06.709Z,99201.84
2023-03-25T02:04:51.060Z,99211.19
2023-03-25T02:07:20.082Z,99202.91
2023-03-25T02:09:47.039Z,99204.94
2023-03-25T02:12:13.885Z,99195.47
2023-03-25T02:14:41.303Z,99208.97
2023-03-25T02:17:55.604Z,99206.72
2023-03-25T02:20:49.662Z,99200.34
2023-03-25T02:23:34.504Z,99205.34
2023-03-25T02:26:36.646Z,99205.03
2023-03-25T02:29:08.020Z,99204.09
2023-03-25T02:31:49.740Z,99204.03
2023-03-25T02:34:34.844Z,99211.44
2023-03-25T02:37:26.712Z,99219.47
2023-03-25T02:40:08.842Z,99212.22
2023-03-25T02:43:01.653Z,99213.00
2023-03-25T02:45:34.239Z,99208.44
2023-03-25T02:48:16.163Z,99208.44
2023-03-25T02:50:48.809Z,99211.03
2023-03-25T02:53:22.934Z,99206.06
2023-03-25T02:55:51.900Z,99215.44
2023-03-25T02:58:21.651Z,99215.22
2023-03-25T03:00:50.044Z,99209.34
2023-03-25T03:03:17.074Z,99211.50
2023-03-25T03:05:46.427Z,99205.44
2023-03-25T03:08:47.101Z,99206.03
2023-03-25T03:11:34.121Z,99207.63
2023-03-25T03:14:09.786Z,99201.63
2023-03-25T03:17:08.417Z,99204.91
2023-03-25T03:19:49.494Z,99205.38
2023-03-25T03:22:41.640Z,99190.25
2023-03-25T03:25:15.614Z,99197.50
2023-03-25T03:28:10.130Z,99202.03
2023-03-25T03:30:48.278Z,99206.34
2023-03-25T03:33:25.693Z,99206.34
2023-03-25T03:36:02.058Z,99207.34
2023-03-25T03:38:43.332Z,99207.59
2023-03-25T03:41:13.771Z,99208.38
2023-03-25T03:43:48.944Z,99208.53
2023-03-25T03:46:29.969Z,99221.19
2023-03-25T03:48:59.616Z,99223.78
2023-03-25T03:52:17.170Z,99224.88
2023-03-25T03:54:51.640Z,99238.63
2023-03-25T03:57:39.032Z,99253.38
2023-03-25T04:00:30.970Z,99261.53
2023-03-25T04:03:15.071Z,99263.81
2023-03-25T04:05:48.552Z,99261.53
2023-03-25T04:08:28.838Z,99259.38
2023-03-25T04:11:09.804Z,99272.88
2023-03-25T04:13:41.480Z,99266.41
2023-03-25T04:16:09.184Z,99254.97
2023-03-25T04:18:35.921Z,99266.97
2023-03-25T04:21:02.970Z,99266.41
2023-03-25T04:23:32.255Z,99263.69
2023-03-25T04:26:02.747Z,99260.53
2023-03-25T04:28:30.094Z,99256.81
2023-03-25T04:31:00.718Z,99265.09
2023-03-25T04:33:32.192Z,99263.72
2023-03-25T04:36:02.012Z,99260.34
2023-03-25T04:38:31.517Z,99272.78
2023-03-25T04:40:58.428Z,99270.19
2023-03-25T04:43:25.328Z,99265.53
2023-03-25T04:45:55.078Z,99275.94
2023-03-25T04:48:26.107Z,99265.53
2023-03-25T04:50:53.123Z,99268.72
2023-03-25T04:53:19.914Z,99277.53
2023-03-25T04:55:49.847Z,99277.53
2023-03-25T04:58:16.950Z,99273.56
2023-03-25T05:00:45.740Z,99280.06
2023-03-25T05:03:12.611Z,99288.41
2023-03-25T05:05:39.518Z,99288.97
2023-03-25T05:08:06.282Z,99300.28
2023-03-25T05:10:34.404Z,99284.53
2023-03-25T05:13:03.338Z,99287.81
2023-03-25T05:15:32.751Z,99292.16
2023-03-25T05:18:02.100Z,99308.47
2023-03-25T05:20:29.070Z,99305.41
2023-03-25T05:22:57.464Z,99300.44
2023-03-25T05:25:24.213Z,99310.91
2023-03-25T05:27:54.488Z,99315.13
2023-03-25T05:30:21.278Z,99310.81
2023-03-25T05:32:50.829Z,99305.22
2023-03-25T05:35:23.200Z,99305.53
2023-03-25T05:37:51.353Z,99306.19
2023-03-25T05:40:18.310Z,99310.22
2023-03-25T05:42:48.985Z,99311.41
2023-03-25T05:45:16.840Z,99307.44
2023-03-25T05:47:44.687Z,99312.50
2023-03-25T05:50:11.753Z,99304.22
2023-03-25T05:52:41.549Z,99313.63
2023-03-25T05:55:15.842Z,99305.59
2023-03-25T05:57:42.820Z,99317.69
2023-03-25T06:00:12.905Z,99318.25
2023-03-25T06:02:45.961Z,99318.16
2023-03-25T06:05:16.729Z,99321.72
2023-03-25T06:07:48.545Z,99322.81
2023-03-25T06:10:17.304Z,99339.09
2023-03-25T06:12:46.633Z,99334.06
2023-03-25T06:15:15.677Z,99330.63
2023-03-25T06:17:42.637Z,99340.97
2023-03-25T06:20:17.924Z,99346.13
2023-03-25T06:22:46.882Z,99338.00
2023-03-25T06:25:28.188Z,99348.00
2023-03-25T06:27:56.236Z,99346.94
2023-03-25T06:30:23.127Z,99332.47
2023-03-25T06:32:51.012Z,99341.41
2023-03-25T06:35:20.501Z,99346.09
2023-03-25T06:37:48.989Z,99355.84
2023-03-25T06:40:25.023Z,99346.00
2023-03-25T06:42:53.151Z,99352.38
2023-03-25T06:45:38.413Z,99349.91
2023-03-25T06:48:18.134Z,99354.44
2023-03-25T06:50:45.710Z,99355.94
2023-03-25T06:53:12.607Z,99360.06
2023-03-25T06:55:39.461Z,99360.44
2023-03-25T06:58:06.671Z,99369.84
2023-03-25T07:00:33.422Z,99375.78
2023-03-25T07:03:00.982Z,99369.44
2023-03-25T07:05:27.925Z,99369.16
2023-03-25T07:07:54.857Z,99356.41
2023-03-25T07:10:21.672Z,99355.81
2023-03-25T07:12:49.429Z,99356.88
2023-03-25T07:15:16.410Z,99362.56
2023-03-25T07:17:49.624Z,99362.59
2023-03-25T07:20:17.345Z,99372.22
2023-03-25T07:22:47.005Z,99374.50
2023-03-25T07:25:13.858Z,99348.91
2023-03-25T07:27:41.280Z,99347.56
2023-03-25T07:30:13.561Z,99351.22
2023-03-25T07:32:40.746Z,99354.19
2023-03-25T07:35:09.594Z,99351.13
2023-03-25T07:37:36.805Z,99344.72
2023-03-25T07:40:03.901Z,99340.19
2023-03-25T07:42:31.060Z,99341.91
2023-03-25T07:47:51.060Z,99324.38
2023-03-25T07:50:24.933Z,99332.47
2023-03-25T07:52:52.454Z,99330.00
2023-03-25T07:55:19.721Z,99316.47
2023-03-25T07:57:49.102Z,99324.50
2023-03-25T08:00:17.079Z,99332.31
2023-03-25T08:02:44.904Z,99332.81
2023-03-25T08:05:12.497Z,99329.97
2023-03-25T08:07:39.837Z,99318.88
2023-03-25T08:10:07.982Z,99332.81
2023-03-25T08:12:34.786Z,99328.59
2023-03-25T08:15:01.557Z,99320.28
2023-03-25T08:17:30.531Z,99322.91
2023-03-25T08:19:58.135Z,99322.84
2023-03-25T08:22:24.958Z,99319.31
2023-03-25T08:24:52.023Z,99317.56
2023-03-25T08:27:18.834Z,99324.50
2023-03-25T08:29:57.562Z,99320.28
2023-03-25T08:32:26.661Z,99310.25
2023-03-25T08:34:54.290Z,99307.88
2023-03-25T08:37:21.991Z,99331.34
2023-03-25T08:39:50.827Z,99323.00
2023-03-25T08:42:17.710Z,99310.19
2023-03-25T08:44:44.546Z,99333.31
2023-03-25T08:47:11.367Z,99329.22
2023-03-25T08:49:38.184Z,99328.16
2023-03-25T08:52:08.640Z,99338.03
2023-03-25T08:54:36.044Z,99340.66
2023-03-25T08:57:03.232Z,99350.66
2023-03-25T08:59:30.071Z,99343.94
2023-03-25T09:02:00.127Z,99353.81
2023-03-25T09:04:30.969Z,99343.31
2023-03-25T09:07:10.788Z,99346.75
2023-03-25T09:09:38.834Z,99348.28
2023-03-25T09:12:06.580Z,99344.84
2023-03-25T09:14:33.861Z,99339.88
2023-03-25T09:17:00.861Z,99344.31
2023-03-25T09:19:27.647Z,99344.31
2023-03-25T09:21:54.819Z,99344.44
2023-03-25T09:24:22.747Z,99349.09
2023-03-25T09:26:49.899Z,99352.03
2023-03-25T09:29:16.750Z,99358.19
2023-03-25T09:31:43.671Z,99349.78
2023-03-25T09:34:11.119Z,99347.69
2023-03-25T09:36:38.118Z,99327.97
2023-03-25T09:39:04.968Z,99343.28
2023-03-25T09:41:48.777Z,99328.34
2023-03-25T09:44:25.428Z,99332.81
2023-03-25T09:46:52.546Z,99344.63
2023-03-25T09:49:23.796Z,99337.84
2023-03-25T09:51:53.061Z,99344.94
2023-03-25T09:54:40.245Z,99359.13
2023-03-25T09:57:16.330Z,99367.25
2023-03-25T09:59:49.354Z,99361.72
2023-03-25T10:02:18.995Z,99358.81
2023-03-25T10:04:57.832Z,99364.59
2023-03-25T10:07:54.733Z,99366.19
2023-03-25T10:10:29.017Z,99370.34
2023-03-25T10:13:33.112Z,99360.38
2023-03-25T10:16:38.994Z,99364.59
2023-03-25T10:19:42.235Z,99374.34
2023-03-25T10:22:31.983Z,99362.00
2023-03-25T10:25:05.218Z,99365.13
2023-03-25T10:27:44.571Z,99361.72
2023-03-25T10:30:17.746Z,99360.94
2023-03-25T10:32:52.263Z,99351.72
2023-03-25T10:35:26.150Z,99358.78
2023-03-25T10:37:57.976Z,99353.03
2023-03-25T10:40:33.829Z,99357.19
2023-03-25T10:43:25.908Z,99354.56
2023-03-25T10:46:17.181Z,99345.91
2023-03-25T10:48:46.049Z,99349.09
2023-03-25T10:51:21.023Z,99358.31
2023-03-25T10:53:54.149Z,99349.91
2023-03-25T10:56:25.103Z,99345.75
2023-03-25T10:58:54.986Z,99354.66
2023-03-25T11:01:52.334Z,99348.34
2023-03-25T11:04:21.344Z,99358.84
2023-03-25T11:06:55.714Z,99363.03
2023-03-25T11:09:30.647Z,99364.09
2023-03-25T11:12:04.532Z,99361.72
2023-03-25T11:14:36.138Z,99360.94
2023-03-25T11:17:11.610Z,99374.59
2023-03-25T11:19:48.042Z,99373.53
2023-03-25T11:22:31.624Z,99370.94
2023-03-25T11:25:18.372Z,99380.88
2023-03-25T11:28:09.273Z,99381.41
2023-03-25T11:30:36.217Z,99378.53
2023-03-25T11:33:17.400Z,99378.50
2023-03-25T11:35:46.673Z,99374.59
2023-03-25T11:38:34.516Z,99377.72
2023-03-25T11:41:01.379Z,99359.91
2023-03-25T11:43:39.002Z,99354.66
2023-03-25T11:46:16.565Z,99367.75
2023-03-25T11:48:46.827Z,99352.03
2023-03-25T11:51:35.125Z,99352.56
2023-03-25T11:54:07.692Z,99336.53
2023-03-25T11:56:38.402Z,99324.72
2023-03-25T11:59:17.627Z,99333.13
2023-03-25T12:01:49.662Z,99326.81
2023-03-25T12:04:26.207Z,99328.41
2023-03-25T12:07:08.737Z,99326.84
2023-03-25T12:09:36.519Z,99311.09
2023-03-25T12:12:22.431Z,99316.34
2023-03-25T12:15:00.489Z,99320.00
2023-03-25T12:17:45.152Z,99306.13
2023-03-25T12:20:35.609Z,99303.75
2023-03-25T12:23:22.585Z,99308.69
2023-03-25T12:25:59.682Z,99301.63
2023-03-25T12:29:04.437Z,99305.28
2023-03-25T12:31:46.354Z,99299.53
2023-03-25T12:34:40.307Z,99313.44
2023-03-25T12:37:40.571Z,99300.31
2023-03-25T12:40:11.299Z,99285.59
2023-03-25T12:43:02.000Z,99299.53
2023-03-25T12:45:40.166Z,99297.47
2023-03-25T12:48:28.752Z,99285.94
2023-03-25T12:51:20.521Z,99298.78
2023-03-25T12:53:58.945Z,99289.59
2023-03-25T12:56:37.515Z,99285.94
2023-03-25T12:59:34.520Z,99292.22
2023-03-25T13:02:04.343Z,99295.63
2023-03-25T13:04:39.982Z,99284.31
2023-03-25T13:07:18.860Z,99285.91
2023-03-25T13:10:04.023Z,99284.38
2023-03-25T13:12:36.039Z,99277.53
2023-03-25T13:15:08.154Z,99277.53
2023-03-25T13:17:58.074Z,99266.53
2023-03-25T13:20:32.141Z,99265.47
2023-03-25T13:23:06.299Z,99265.47
2023-03-25T13:25:47.229Z,99279.59
2023-03-25T13:28:18.839Z,99267.81
2023-03-25T13:30:48.018Z,99273.34
2023-03-25T13:33:27.756Z,99275.97
2023-03-25T13:36:21.721Z,99273.09
2023-03-25T13:38:52.315Z,99251.81
2023-03-25T13:41:59.752Z,99263.13
2023-03-25T13:44:37.990Z,99262.88
2023-03-25T13:47:23.012Z,99257.09
2023-03-25T13:50:01.794Z,99256.03
2023-03-25T13:52:36.907Z,99259.16
2023-03-25T13:55:26.090Z,99262.88
2023-03-25T13:58:15.925Z,99253.41
2023-03-25T14:01:01.975Z,99261.78
2023-03-25T14:04:02.664Z,99259.97
2023-03-25T14:06:54.049Z,99263.91
2023-03-25T14:09:57.566Z,99245.28
2023-03-25T14:12:31.673Z,99255.19
2023-03-25T14:15:11.198Z,99254.91
2023-03-25T14:17:39.749Z,99244.69
2023-03-25T14:20:10.792Z,99238.91
2023-03-25T14:22:43.739Z,99244.91
2023-03-25T14:25:35.200Z,99242.16
2023-03-25T14:28:05.188Z,99247.22
2023-03-25T14:30:33.779Z,99247.44
2023-03-25T14:33:04.008Z,99243.22
2023-03-25T14:35:33.941Z,99239.22
2023-03-25T14:38:09.858Z,99247.81
2023-03-25T14:40:50.778Z,99252.00
2023-03-25T14:43:27.858Z,99249.31
2023-03-25T14:46:03.596Z,99247.69
2023-03-25T14:48:46.908Z,99247.66
2023-03-25T14:51:42.972Z,99240.81
2023-03-25T14:54:29.875Z,99234.34
2023-03-25T14:57:01.930Z,99236.63
2023-03-25T14:59:36.986Z,99235.13
2023-03-25T15:02:31.409Z,99235.59
2023-03-25T15:05:03.553Z,99227.31
2023-03-25T15:07:53.365Z,99225.13
2023-03-25T15:10:28.166Z,99224.94
2023-03-25T15:13:07.532Z,99222.06
2023-03-25T15:15:46.668Z,99223.09
2023-03-25T15:18:36.984Z,99224.78
2023-03-25T15:21:10.790Z,99219.94
2023-03-25T15:24:18.740Z,99222.47
2023-03-25T15:26:46.898Z,99214.84
2023-03-25T15:29:53.092Z,99206.16
2023-03-25T15:32:48.167Z,99203.13
2023-03-25T15:35:17.828Z,99191.88
2023-03-25T15:38:25.205Z,99193.34
2023-03-25T15:41:41.745Z,99185.72
2023-03-25T15:44:49.744Z,99199.75
2023-03-25T15:47:38.131Z,99197.91
2023-03-25T15:50:11.021Z,99195.59
2023-03-25T15:53:19.397Z,99197.91
2023-03-25T15:55:53.714Z,99206.00
2023-03-25T15:58:34.068Z,99216.69
2023-03-25T16:01:36.110Z,99204.38
2023-03-25T16:04:10.934Z,99197.28
2023-03-25T16:06:43.699Z,99200.13
2023-03-25T16:09:27.271Z,99193.81
2023-03-25T16:12:02.933Z,99202.69
2023-03-25T16:14:33.924Z,99209.47
2023-03-25T16:17:03.283Z,99200.31
2023-03-25T16:19:34.566Z,99199.00
2023-03-25T16:22:14.868Z,99197.91
2023-03-25T16:24:41.759Z,99194.19
2023-03-25T16:27:19.209Z,99191.22
2023-03-25T16:29:50.731Z,99200.41
2023-03-25T16:32:26.243Z,99203.72
2023-03-25T16:34:54.117Z,99214.41
2023-03-25T16:37:21.955Z,99214.56
2023-03-25T16:40:07.635Z,99214.44
2023-03-25T16:42:35.585Z,99209.00
2023-03-25T16:45:05.780Z,99212.00
2023-03-25T16:47:36.973Z,99216.63
2023-03-25T16:50:05.121Z,99219.63
2023-03-25T16:52:34.572Z,99224.03
2023-03-25T16:55:01.273Z,99230.78
2023-03-25T16:57:32.506Z,99227.31
2023-03-25T17:00:20.352Z,99230.31
2023-03-25T17:02:49.970Z,99234.94
2023-03-25T17:05:24.084Z,99234.38
2023-03-25T17:08:07.137Z,99243.34
2023-03-25T17:10:52.679Z,99246.88
2023-03-25T17:13:51.996Z,99255.50
2023-03-25T17:16:20.002Z,99260.56
2023-03-25T17:18:51.240Z,99267.69
2023-03-25T17:21:36.525Z,99272.41
2023-03-25T17:24:21.056Z,99281.75
2023-03-25T17:27:24.052Z,99289.78
2023-03-25T17:29:53.884Z,99298.44
2023-03-25T17:32:20.895Z,99328.09
2023-03-25T17:35:07.729Z,99375.88
2023-03-25T17:37:34.816Z,99366.00
2023-03-25T17:40:11.474Z,99389.81
2023-03-25T17:42:41.439Z,99385.28
2023-03-25T17:45:14.958Z,99384.91
2023-03-25T17:47:41.865Z,99400.44
2023-03-25T17:50:17.033Z,99415.97
2023-03-25T17:52:44.031Z,99432.13
2023-03-25T17:55:11.019Z,99434.03
2023-03-25T17:57:38.764Z,99449.97
2023-03-25T18:00:09.976Z,99448.44
2023-03-25T18:02:36.927Z,99447.97
2023-03-25T18:05:06.363Z,99444.03
2023-03-25T18:07:33.299Z,99441.97
2023-03-25T18:10:00.784Z,99445.72
2023-03-25T18:12:28.158Z,99431.84
2023-03-25T18:14:55.373Z,99413.09
2023-03-25T18:17:22.153Z,99423.84
2023-03-25T18:19:48.883Z,99410.63
2023-03-25T18:24:46.380Z,99406.53
2023-03-25T18:27:14.329Z,99402.47
2023-03-25T18:29:41.431Z,99382.03
2023-03-25T18:32:08.429Z,99391.53
2023-03-25T18:34:35.716Z,99397.22
2023-03-25T18:37:02.603Z,99404.22
2023-03-25T18:39:30.130Z,99402.41
2023-03-25T18:41:56.903Z,99408.63
2023-03-25T18:44:23.843Z,99426.03
2023-03-25T18:46:50.600Z,99425.25
2023-03-25T18:49:20.069Z,99432.53
2023-03-25T18:51:48.448Z,99431.81
2023-03-25T18:54:16.441Z,99435.28
2023-03-25T18:56:43.806Z,99431.19
2023-03-25T18:59:15.274Z,99436.91
2023-03-25T19:01:42.563Z,99432.22
2023-03-25T19:04:09.735Z,99433.53
2023-03-25T19:06:39.230Z,99441.47
2023-03-25T19:09:08.618Z,99430.34
2023-03-25T19:11:35.893Z,99421.41
2023-03-25T19:14:02.713Z,99433.09
2023-03-25T19:16:29.582Z,99421.75
2023-03-25T19:18:56.321Z,99415.38
2023-03-25T19:21:23.152Z,99423.63
2023-03-25T19:23:49.945Z,99420.03
2023-03-25T19:26:16.716Z,99419.72
2023-03-25T19:28:44.681Z,99421.75
2023-03-25T19:31:16.444Z,99417.41
2023-03-25T19:33:46.901Z,99412.84
2023-03-25T19:36:15.751Z,99429.66
2023-03-25T19:38:42.900Z,99417.09
2023-03-25T19:41:14.137Z,99425.28
2023-03-25T19:43:41.205Z,99413.91
2023-03-25T19:46:08.323Z,99418.53
2023-03-25T19:48:36.226Z,99415.16
2023-03-25T19:51:04.117Z,99424.53
2023-03-25T19:53:31.155Z,99421.13
2023-03-25T19:56:05.667Z,99425.16
2023-03-25T19:58:34.933Z,99422.94
2023-03-25T20:01:02.009Z,99423.94
2023-03-25T20:03:31.437Z,99435.31
2023-03-25T20:06:00.764Z,99426.16
2023-03-25T20:08:29.425Z,99440.72
2023-03-25T20:10:56.830Z,99434.34
2023-03-25T20:13:24.919Z,99435.94
2023-03-25T20:15:52.749Z,99435.94
2023-03-25T20:18:20.046Z,99437.75
2023-03-25T20:20:47.587Z,99429.97
2023-03-25T20:23:14.350Z,99428.78
2023-03-25T20:25:41.420Z,99434.34
2023-03-25T20:28:08.516Z,99432.19
2023-03-25T20:30:35.773Z,99426.41
2023-03-25T20:33:03.039Z,99432.81
2023-03-25T20:35:30.557Z,99422.47
2023-03-25T20:37:57.587Z,99424.91
2023-03-25T20:40:30.941Z,99438.47
2023-03-25T20:43:06.182Z,99448.84
2023-03-25T20:45:34.200Z,99446.63
2023-03-25T20:48:01.683Z,99448.28
2023-03-25T20:50:28.591Z,99452.09
2023-03-25T20:52:55.674Z,99450.09
2023-03-25T20:55:22.819Z,99433.59
2023-03-25T20:57:50.483Z,99442.38
2023-03-25T21:00:20.356Z,99434.59
2023-03-25T21:05:14.441Z,99435.06
2023-03-25T21:07:41.750Z,99431.03
2023-03-25T21:10:09.329Z,99434.88
2023-03-25T21:12:43.700Z,99438.44
2023-03-25T21:15:13.297Z,99441.63
2023-03-25T21:17:40.783Z,99446.56
2023-03-25T21:20:09.380Z,99446.94
2023-03-25T21:22:45.257Z,99441.75
2023-03-25T21:25:18.296Z,99440.34
2023-03-25T21:27:49.204Z,99437.34
2023-03-25T21:30:16.645Z,99450.28
2023-03-25T21:32:44.021Z,99456.84
2023-03-25T21:35:11.900Z,99450.66
2023-03-25T21:37:39.981Z,99461.66
2023-03-25T21:40:10.901Z,99461.88
2023-03-25T21:42:38.819Z,99460.69
2023-03-25T21:45:07.558Z,99458.94
2023-03-25T21:47:36.764Z,99456.94
2023-03-25T21:50:06.179Z,99452.41
2023-03-25T21:52:33.760Z,99458.94
2023-03-25T21:55:00.612Z,99456.81
2023-03-25T21:57:27.390Z,99457.81
2023-03-25T21:59:55.314Z,99455.44
2023-03-25T22:02:25.762Z,99449.47
2023-03-25T22:04:53.269Z,99445.28
2023-03-25T22:07:20.153Z,99449.09
2023-03-25T22:09:48.507Z,99441.38
2023-03-25T22:12:15.721Z,99440.94
2023-03-25T22:14:42.709Z,99433.00
2023-03-25T22:17:09.875Z,99437.78
2023-03-25T22:19:37.190Z,99431.03
2023-03-25T22:22:04.227Z,99440.59
2023-03-25T22:24:31.413Z,99443.38
2023-03-25T22:27:00.749Z,99445.38
2023-03-25T22:29:27.564Z,99443.00
2023-03-25T22:31:55.810Z,99453.94
2023-03-25T22:34:22.762Z,99452.56
2023-03-25T22:36:51.002Z,99452.56
2023-03-25T22:39:19.289Z,99455.94
2023-03-25T22:41:46.149Z,99457.72
2023-03-25T22:44:16.984Z,99460.72
2023-03-25T22:46:44.752Z,99463.50
2023-03-25T22:49:11.782Z,99461.53
2023-03-25T22:51:38.643Z,99469.28
2023-03-25T22:54:05.932Z,99452.19
2023-03-25T22:56:35.941Z,99467.50
2023-03-25T22:59:04.699Z,99466.13
2023-03-25T23:01:32.105Z,99467.94
2023-03-25T23:03:59.794Z,99473.09
2023-03-25T23:06:27.747Z,99469.09
2023-03-25T23:08:58.151Z,99477.06
2023-03-25T23:11:27.415Z,99471.09
2023-03-25T23:14:00.651Z,99476.69
2023-03-25T23:16:30.813Z,99463.53
2023-03-25T23:18:58.304Z,99461.94
2023-03-25T23:21:27.908Z,99468.34
2023-03-25T23:23:58.105Z,99470.31
2023-03-25T23:26:26.584Z,99453.56
2023-03-25T23:28:56.490Z,99461.97
2023-03-25T23:31:28.604Z,99464.75
2023-03-25T23:34:00.870Z,99461.16
2023-03-25T23:36:30.215Z,99469.91
2023-03-25T23:38:58.722Z,99467.53
2023-03-25T23:41:26.072Z,99461.94
2023-03-25T23:43:54.475Z,99465.75
2023-03-25T23:46:23.329Z,99456.56
2023-03-25T23:48:54.675Z,99464.34
2023-03-25T23:51:24.049Z,99451.00
2023-03-25T23:53:54.168Z,99456.97
2023-03-25T23:56:23.931Z,99449.63
2023-03-25T23:58:52.256Z,99450.81
